Time;durP1;ratioP1;P1;durP2;ratioP2;P2;SDS_P1;SDS_P2;PMS_P1;PMS_P2;Temp;Humidity;BMP_temperature;BMP_pressure;BME280_temperature;BME280_humidity;BME280_pressure;Samples;Min_cycle;Max_cycle;Signal;HPM_P1;HPM_P2
2021/10/20 00:02:12;;;;;;;4.45;3.22;;;15.00;99.90;;;;;;4974455;28;20430;-84
2021/10/20 00:04:38;;;;;;;5.15;2.78;;;14.90;99.90;;;;;;4990350;28;20031;-84
2021/10/20 00:07:03;;;;;;;3.72;2.67;;;14.80;99.90;;;;;;4972956;28;20077;-84
2021/10/20 00:09:29;;;;;;;2.72;2.42;;;14.80;99.90;;;;;;4994157;28;20030;-84
2021/10/20 00:11:54;;;;;;;3.53;2.67;;;14.80;99.90;;;;;;4986988;28;20634;-84
2021/10/20 00:14:20;;;;;;;2.88;2.25;;;14.80;99.90;;;;;;4972791;28;20038;-84
2021/10/20 00:16:45;;;;;;;3.08;2.60;;;14.80;99.90;;;;;;4992371;28;20489;-84
2021/10/20 00:19:11;;;;;;;4.70;2.60;;;14.80;99.90;;;;;;5014791;28;20034;-84
2021/10/20 00:21:37;;;;;;;4.28;2.70;;;14.80;99.90;;;;;;4998679;28;20100;-84
2021/10/20 00:24:03;;;;;;;5.70;2.33;;;14.80;99.90;;;;;;4987746;28;20533;-84
2021/10/20 00:26:28;;;;;;;4.10;2.47;;;14.80;99.90;;;;;;5002325;28;20108;-84
2021/10/20 00:28:54;;;;;;;5.75;2.60;;;14.80;99.90;;;;;;4973876;28;20073;-84
2021/10/20 00:31:19;;;;;;;5.10;2.33;;;14.70;99.90;;;;;;4982577;28;20076;-84
2021/10/20 00:33:45;;;;;;;2.33;2.08;;;14.80;99.90;;;;;;4967982;28;20125;-84
2021/10/20 00:36:10;;;;;;;4.15;2.40;;;14.70;99.90;;;;;;4969745;28;20031;-84
2021/10/20 00:38:36;;;;;;;5.05;2.17;;;14.70;99.90;;;;;;4955196;28;20118;-84
2021/10/20 00:41:02;;;;;;;3.55;3.20;;;14.70;99.90;;;;;;4964797;28;20591;-84
2021/10/20 00:43:27;;;;;;;3.55;2.58;;;14.80;99.90;;;;;;4969504;28;20042;-84
2021/10/20 00:45:53;;;;;;;3.28;2.50;;;14.70;99.90;;;;;;4968883;28;20042;-85
2021/10/20 00:48:18;;;;;;;6.50;1.98;;;14.70;99.90;;;;;;5000216;28;20036;-84
2021/10/20 00:50:44;;;;;;;3.28;2.72;;;14.70;99.90;;;;;;4994453;28;20875;-84
2021/10/20 00:53:10;;;;;;;3.83;2.53;;;14.70;99.90;;;;;;4976500;28;20061;-84
2021/10/20 00:55:36;;;;;;;3.95;2.03;;;14.60;99.90;;;;;;4968567;28;20461;-85
2021/10/20 00:58:02;;;;;;;2.85;2.55;;;14.70;99.90;;;;;;4984039;28;20047;-84
2021/10/20 01:00:27;;;;;;;6.20;2.92;;;14.60;99.90;;;;;;4992112;28;20050;-85
2021/10/20 01:02:53;;;;;;;4.18;2.42;;;14.70;99.90;;;;;;4992660;28;20494;-84
2021/10/20 01:05:19;;;;;;;5.82;2.42;;;14.60;99.90;;;;;;5003190;28;20542;-84
2021/10/20 01:07:45;;;;;;;3.85;2.80;;;14.60;99.90;;;;;;4993657;28;20336;-85
2021/10/20 01:10:10;;;;;;;4.10;2.58;;;14.70;99.90;;;;;;4986349;28;20033;-84
2021/10/20 01:12:37;;;;;;;4.65;2.63;;;14.70;99.90;;;;;;5001859;28;20033;-84
2021/10/20 01:15:16;;;;;;;3.22;2.92;;;14.70;99.90;;;;;;4981603;28;20033;-85
2021/10/20 01:17:42;;;;;;;3.67;2.30;;;14.60;99.90;;;;;;4985634;28;20023;-85
2021/10/20 01:20:09;;;;;;;4.47;2.88;;;14.70;99.90;;;;;;4987327;28;20034;-85
2021/10/20 01:22:34;;;;;;;6.03;2.63;;;14.70;99.90;;;;;;4987585;28;20034;-85
2021/10/20 01:25:00;;;;;;;6.32;2.63;;;14.70;99.90;;;;;;4986084;28;20053;-85
2021/10/20 01:27:26;;;;;;;6.07;2.50;;;14.60;99.90;;;;;;4981617;28;20438;-85
2021/10/20 01:29:51;;;;;;;5.15;2.55;;;14.50;99.90;;;;;;4999781;28;20064;-85
2021/10/20 01:32:17;;;;;;;4.60;2.70;;;14.60;99.90;;;;;;5006225;28;20446;-85
2021/10/20 01:34:42;;;;;;;3.22;2.45;;;14.60;99.90;;;;;;4997483;28;20034;-85
2021/10/20 01:37:08;;;;;;;5.20;2.50;;;14.60;99.90;;;;;;5001901;28;20100;-85
2021/10/20 01:39:33;;;;;;;3.58;2.83;;;14.60;99.90;;;;;;4987325;28;20036;-85
2021/10/20 01:41:59;;;;;;;4.55;3.50;;;14.60;99.90;;;;;;4999716;28;20480;-85
2021/10/20 01:44:25;;;;;;;3.83;2.45;;;14.60;99.90;;;;;;4990252;28;20035;-85
2021/10/20 01:46:50;;;;;;;4.38;2.63;;;14.60;99.90;;;;;;4966157;28;20041;-85
2021/10/20 01:49:16;;;;;;;3.92;3.22;;;14.60;99.90;;;;;;4986510;28;20568;-85
2021/10/20 01:51:41;;;;;;;4.38;1.70;;;14.60;99.90;;;;;;4977134;28;20029;-85
2021/10/20 01:54:07;;;;;;;5.72;2.10;;;14.70;99.90;;;;;;5001989;28;20042;-85
2021/10/20 01:56:33;;;;;;;5.90;2.75;;;14.60;99.90;;;;;;4985696;28;20054;-85
2021/10/20 01:58:59;;;;;;;3.17;2.58;;;14.60;99.90;;;;;;4981209;28;20542;-85
2021/10/20 02:01:24;;;;;;;4.07;3.08;;;14.60;99.90;;;;;;5005213;28;20026;-85
2021/10/20 02:03:50;;;;;;;4.05;2.53;;;14.60;99.90;;;;;;4981084;28;20128;-85
2021/10/20 02:06:18;;;;;;;6.90;2.60;;;14.60;99.90;;;;;;4972807;28;20435;-85
2021/10/20 02:08:44;;;;;;;5.22;2.35;;;14.60;99.90;;;;;;4988579;28;20034;-85
2021/10/20 02:11:09;;;;;;;4.38;2.35;;;14.60;99.90;;;;;;4971023;28;20030;-85
2021/10/20 02:13:35;;;;;;;4.55;2.60;;;14.70;99.90;;;;;;4956978;28;20034;-85
2021/10/20 02:16:00;;;;;;;5.65;3.17;;;14.70;99.90;;;;;;4956175;28;20114;-85
2021/10/20 02:18:26;;;;;;;5.10;2.42;;;14.60;99.90;;;;;;4982097;28;20398;-85
2021/10/20 02:20:52;;;;;;;4.63;2.47;;;14.70;99.90;;;;;;4986548;28;20088;-85
2021/10/20 02:23:18;;;;;;;2.97;2.20;;;14.70;99.90;;;;;;4997324;28;20107;-85
2021/10/20 02:25:43;;;;;;;8.18;2.88;;;14.70;99.90;;;;;;5010166;28;20030;-85
2021/10/20 02:28:09;;;;;;;2.95;1.58;;;14.70;99.90;;;;;;4991000;28;20042;-85
2021/10/20 02:30:34;;;;;;;5.10;2.58;;;14.70;99.90;;;;;;4976208;28;20033;-85
2021/10/20 02:33:00;;;;;;;4.13;2.50;;;14.70;99.90;;;;;;4980792;28;20402;-84
2021/10/20 02:35:25;;;;;;;2.78;2.15;;;14.70;99.90;;;;;;4975498;28;20031;-84
2021/10/20 02:37:51;;;;;;;5.75;2.97;;;14.70;99.90;;;;;;4967664;28;20041;-85
2021/10/20 02:40:16;;;;;;;3.72;2.65;;;14.70;99.90;;;;;;5004190;28;20022;-85
2021/10/20 02:42:42;;;;;;;4.30;2.90;;;14.60;99.90;;;;;;5009800;28;20035;-85
2021/10/20 02:45:11;;;;;;;2.70;2.28;;;14.70;99.90;;;;;;4969722;28;20093;-85
2021/10/20 02:47:37;;;;;;;5.10;2.53;;;14.60;99.90;;;;;;4974650;28;20409;-85
2021/10/20 02:50:04;;;;;;;2.97;2.30;;;14.70;99.90;;;;;;5001404;28;20038;-85
2021/10/20 02:52:30;;;;;;;4.97;2.60;;;14.70;99.90;;;;;;4990247;28;20124;-85
2021/10/20 02:54:56;;;;;;;5.53;2.33;;;14.70;99.90;;;;;;4988331;28;20513;-85
2021/10/20 02:57:21;;;;;;;4.32;2.83;;;14.80;99.90;;;;;;4974692;28;20034;-85
2021/10/20 02:59:47;;;;;;;5.15;2.50;;;14.70;99.90;;;;;;4987713;28;20031;-85
2021/10/20 03:02:13;;;;;;;3.47;2.45;;;14.80;99.90;;;;;;4984917;28;20654;-85
2021/10/20 03:04:38;;;;;;;3.20;2.35;;;14.80;99.90;;;;;;4990689;28;20116;-85
2021/10/20 03:07:04;;;;;;;7.30;2.58;;;14.80;99.90;;;;;;4991144;28;20133;-84
2021/10/20 03:09:29;;;;;;;7.53;2.83;;;14.80;99.90;;;;;;4983920;28;20096;-85
2021/10/20 03:11:55;;;;;;;8.65;2.97;;;14.90;99.90;;;;;;4988955;28;20042;-85
2021/10/20 03:14:21;;;;;;;3.60;2.08;;;14.80;99.90;;;;;;4988736;28;20312;-85
2021/10/20 03:16:46;;;;;;;5.35;2.60;;;14.80;99.90;;;;;;4998496;28;20057;-85
2021/10/20 03:19:12;;;;;;;4.07;3.20;;;14.90;99.90;;;;;;4986169;28;20443;-85
2021/10/20 03:21:37;;;;;;;6.03;2.75;;;14.80;99.90;;;;;;4967751;28;20410;-85
2021/10/20 03:24:03;;;;;;;7.50;3.30;;;14.80;99.90;;;;;;4982800;28;20065;-85
2021/10/20 03:26:28;;;;;;;4.25;2.10;;;14.80;99.90;;;;;;4989802;28;20026;-85
2021/10/20 03:28:54;;;;;;;3.22;2.20;;;14.80;99.90;;;;;;4988148;28;20362;-85
2021/10/20 03:31:20;;;;;;;5.22;3.10;;;14.90;99.90;;;;;;4966399;28;21966;-85
2021/10/20 03:33:45;;;;;;;4.85;3.30;;;14.90;99.90;;;;;;4970135;28;20105;-85
2021/10/20 03:36:11;;;;;;;5.25;3.35;;;14.80;99.90;;;;;;4983943;28;20055;-85
2021/10/20 03:38:36;;;;;;;4.85;3.55;;;14.90;99.90;;;;;;4965071;28;20658;-85
2021/10/20 03:41:02;;;;;;;5.13;3.15;;;14.80;99.90;;;;;;4982513;28;20130;-85
2021/10/20 03:43:27;;;;;;;5.18;2.88;;;14.80;99.90;;;;;;4963296;28;20043;-85
2021/10/20 03:45:53;;;;;;;3.80;2.72;;;14.90;99.90;;;;;;4970026;28;20045;-84
2021/10/20 03:48:19;;;;;;;7.00;3.00;;;14.80;99.90;;;;;;5001508;28;20038;-85
2021/10/20 03:50:44;;;;;;;4.40;3.15;;;14.90;99.90;;;;;;4986227;28;20061;-85
2021/10/20 03:53:10;;;;;;;1.92;1.70;;;14.90;99.90;;;;;;4965758;28;20061;-85
2021/10/20 03:55:35;;;;;;;2.33;1.77;;;14.90;99.90;;;;;;4954062;28;20038;-85
2021/10/20 03:58:01;;;;;;;5.00;2.92;;;14.90;99.90;;;;;;4967489;28;20612;-85
2021/10/20 04:00:26;;;;;;;3.38;2.30;;;15.00;99.90;;;;;;4995667;28;20049;-85
2021/10/20 04:02:52;;;;;;;7.72;3.58;;;14.90;99.90;;;;;;4984660;28;20109;-85
2021/10/20 04:05:18;;;;;;;4.95;3.28;;;15.00;99.90;;;;;;4968975;28;20061;-85
2021/10/20 04:07:45;;;;;;;5.68;2.17;;;15.10;99.90;;;;;;4970891;28;20037;-85
2021/10/20 04:10:12;;;;;;;4.53;3.03;;;14.90;99.80;;;;;;4947028;28;20030;-85
2021/10/20 04:12:38;;;;;;;3.95;2.80;;;15.00;99.80;;;;;;4985400;28;20411;-84
2021/10/20 04:15:04;;;;;;;4.78;2.22;;;15.00;99.90;;;;;;4985811;28;20065;-85
2021/10/20 04:17:29;;;;;;;4.35;3.00;;;15.00;99.90;;;;;;4963881;28;20034;-85
2021/10/20 04:19:55;;;;;;;7.22;3.30;;;15.00;99.80;;;;;;4982387;28;20504;-85
2021/10/20 04:22:20;;;;;;;2.53;1.85;;;15.00;99.90;;;;;;4972044;28;20027;-85
2021/10/20 04:24:46;;;;;;;6.30;3.75;;;14.90;99.90;;;;;;5003887;28;20038;-85
2021/10/20 04:27:11;;;;;;;4.05;3.40;;;14.90;99.90;;;;;;4989944;28;20438;-84
2021/10/20 04:29:37;;;;;;;5.50;3.20;;;14.80;99.90;;;;;;4979633;28;20035;-86
2021/10/20 04:32:03;;;;;;;4.50;2.92;;;14.90;99.90;;;;;;4989184;28;20038;-85
2021/10/20 04:34:28;;;;;;;4.43;3.33;;;14.90;99.90;;;;;;4987468;28;20516;-85
2021/10/20 04:36:54;;;;;;;6.45;3.50;;;14.90;99.90;;;;;;5006599;28;20140;-85
2021/10/20 04:39:19;;;;;;;6.68;3.53;;;14.90;99.90;;;;;;5001080;28;20109;-85
2021/10/20 04:41:45;;;;;;;8.05;3.47;;;14.80;99.90;;;;;;4972214;28;20037;-85
2021/10/20 04:44:10;;;;;;;6.30;2.05;;;14.80;99.90;;;;;;4985901;28;20035;-86
2021/10/20 04:46:36;;;;;;;4.97;3.28;;;14.80;99.90;;;;;;5006586;28;20085;-85
2021/10/20 04:49:01;;;;;;;6.47;3.50;;;14.80;99.90;;;;;;4981459;28;20045;-85
2021/10/20 04:51:27;;;;;;;7.28;3.72;;;14.80;99.90;;;;;;5004443;28;20037;-85
2021/10/20 04:53:52;;;;;;;9.90;3.45;;;14.80;99.90;;;;;;4998291;28;20038;-84
2021/10/20 04:56:18;;;;;;;5.22;3.40;;;14.80;99.90;;;;;;5003244;28;20030;-85
2021/10/20 04:58:44;;;;;;;4.45;3.40;;;14.80;99.90;;;;;;5000192;28;20030;-85
2021/10/20 05:01:09;;;;;;;4.55;3.03;;;14.80;99.90;;;;;;4984499;28;20054;-85
2021/10/20 05:03:35;;;;;;;3.97;2.40;;;14.80;99.90;;;;;;5003535;28;20112;-84
2021/10/20 05:06:00;;;;;;;7.13;2.90;;;14.80;99.90;;;;;;4974204;28;20045;-84
2021/10/20 05:08:26;;;;;;;3.35;2.40;;;14.80;99.90;;;;;;4985701;28;20124;-86
2021/10/20 05:10:52;;;;;;;4.05;3.50;;;14.80;99.90;;;;;;4980793;28;20041;-85
2021/10/20 05:13:17;;;;;;;5.55;3.15;;;14.70;99.90;;;;;;4968448;28;20030;-86
2021/10/20 05:15:44;;;;;;;7.35;3.20;;;14.70;99.90;;;;;;4953902;28;20078;-85
2021/10/20 05:18:10;;;;;;;5.22;2.45;;;14.80;99.90;;;;;;4980775;28;20062;-85
2021/10/20 05:20:36;;;;;;;9.02;2.42;;;14.80;99.90;;;;;;4985562;28;20132;-85
2021/10/20 05:23:01;;;;;;;7.32;3.22;;;14.80;99.90;;;;;;4985511;28;20167;-85
2021/10/20 05:25:27;;;;;;;7.63;3.13;;;14.80;99.90;;;;;;4967989;28;20038;-85
2021/10/20 05:27:58;;;;;;;6.65;3.28;;;14.80;99.90;;;;;;4985748;28;20104;-85
2021/10/20 05:30:24;;;;;;;4.07;3.33;;;14.80;99.90;;;;;;4982346;28;20022;-85
2021/10/20 05:32:50;;;;;;;3.78;3.10;;;14.70;99.90;;;;;;4983876;28;20037;-85
2021/10/20 05:35:18;;;;;;;8.90;3.97;;;14.80;99.90;;;;;;4964132;28;20026;-85
2021/10/20 05:37:47;;;;;;;4.95;3.00;;;14.80;99.90;;;;;;4984179;28;20031;-85
2021/10/20 05:40:13;;;;;;;6.35;3.53;;;14.80;99.90;;;;;;4966989;28;20031;-85
2021/10/20 05:42:38;;;;;;;6.68;4.15;;;14.80;99.90;;;;;;4987231;28;20049;-85
2021/10/20 05:45:04;;;;;;;6.07;4.43;;;14.90;99.90;;;;;;5002081;28;20084;-85
2021/10/20 05:47:30;;;;;;;6.68;4.00;;;14.80;99.90;;;;;;4985706;28;20030;-84
2021/10/20 05:49:55;;;;;;;7.32;4.13;;;14.80;99.90;;;;;;4977138;28;20456;-85
2021/10/20 05:52:21;;;;;;;6.30;3.90;;;14.80;99.90;;;;;;4998006;28;20095;-85
2021/10/20 05:54:46;;;;;;;8.20;3.67;;;14.80;99.90;;;;;;4972660;28;20037;-85
2021/10/20 05:57:12;;;;;;;9.00;4.63;;;14.70;99.90;;;;;;5001796;28;20026;-84
2021/10/20 05:59:38;;;;;;;6.43;4.50;;;14.80;99.90;;;;;;4985269;28;20084;-85
2021/10/20 06:02:03;;;;;;;5.90;3.85;;;14.70;99.90;;;;;;4985293;28;20577;-84
2021/10/20 06:04:29;;;;;;;6.68;4.20;;;14.70;99.90;;;;;;4987115;28;20564;-85
2021/10/20 06:06:54;;;;;;;6.10;3.90;;;14.70;99.90;;;;;;4985053;28;20030;-85
2021/10/20 06:09:20;;;;;;;5.88;4.30;;;14.80;99.90;;;;;;4998393;28;20026;-85
2021/10/20 06:11:45;;;;;;;5.78;3.13;;;14.80;99.90;;;;;;4984334;28;20037;-84
2021/10/20 06:14:11;;;;;;;5.40;3.40;;;14.70;99.90;;;;;;4983605;28;20539;-85
2021/10/20 06:16:38;;;;;;;8.73;3.97;;;14.70;99.90;;;;;;4985759;28;20559;-85
2021/10/20 06:19:04;;;;;;;6.22;3.88;;;14.70;99.90;;;;;;4987681;28;20383;-84
2021/10/20 06:21:30;;;;;;;4.90;3.75;;;14.70;99.90;;;;;;4963784;28;20038;-85
2021/10/20 06:23:56;;;;;;;7.65;4.20;;;14.80;99.90;;;;;;4963175;28;20045;-85
2021/10/20 06:26:21;;;;;;;6.72;4.90;;;14.80;99.90;;;;;;4980427;28;20035;-85
2021/10/20 06:28:47;;;;;;;6.28;4.57;;;14.70;99.90;;;;;;4981153;28;20034;-85
2021/10/20 06:31:13;;;;;;;9.65;4.60;;;14.80;99.90;;;;;;4966639;28;20090;-85
2021/10/20 06:33:40;;;;;;;3.78;3.28;;;14.80;99.90;;;;;;4961473;28;20138;-85
2021/10/20 06:36:05;;;;;;;6.50;3.40;;;14.80;99.90;;;;;;4967672;28;20038;-84
2021/10/20 06:38:31;;;;;;;6.72;4.13;;;14.80;99.90;;;;;;4968120;28;20045;-85
2021/10/20 06:40:56;;;;;;;5.85;3.55;;;14.80;99.90;;;;;;4951510;28;20065;-85
2021/10/20 06:43:22;;;;;;;6.57;4.38;;;14.80;99.90;;;;;;4950958;28;20035;-85
2021/10/20 06:45:48;;;;;;;5.68;3.90;;;14.80;99.90;;;;;;4971223;28;20085;-85
2021/10/20 06:48:13;;;;;;;10.02;3.67;;;14.70;99.90;;;;;;4976586;28;20026;-85
2021/10/20 06:50:39;;;;;;;5.30;3.72;;;14.80;99.90;;;;;;4969900;28;20483;-85
2021/10/20 06:53:05;;;;;;;5.75;4.13;;;14.80;99.90;;;;;;4971390;28;20077;-85
2021/10/20 06:55:30;;;;;;;8.25;4.35;;;14.80;99.90;;;;;;4965075;28;20022;-85
2021/10/20 06:57:56;;;;;;;6.95;3.85;;;14.70;99.90;;;;;;4984412;28;20035;-85
2021/10/20 07:00:21;;;;;;;6.35;3.58;;;14.70;99.90;;;;;;5001232;28;20390;-85
2021/10/20 07:02:47;;;;;;;6.35;3.90;;;14.80;99.90;;;;;;5007115;28;20030;-85
2021/10/20 07:05:12;;;;;;;8.77;3.75;;;14.80;99.90;;;;;;4978409;28;20069;-85
2021/10/20 07:07:39;;;;;;;6.35;4.43;;;14.80;99.90;;;;;;4954804;28;20077;-85
2021/10/20 07:10:05;;;;;;;8.88;4.15;;;14.90;99.90;;;;;;4964089;28;20057;-85
2021/10/20 07:12:32;;;;;;;7.03;3.67;;;14.80;99.90;;;;;;4999594;28;20027;-85
2021/10/20 07:15:00;;;;;;;5.30;3.97;;;14.80;99.90;;;;;;4969296;28;20047;-85
2021/10/20 07:17:27;;;;;;;5.30;3.33;;;14.80;99.90;;;;;;4955466;28;20031;-85
2021/10/20 07:19:53;;;;;;;5.68;4.57;;;15.00;99.90;;;;;;4968463;28;20072;-85
2021/10/20 07:22:18;;;;;;;5.78;3.22;;;15.00;99.90;;;;;;4968399;28;20135;-84
2021/10/20 07:24:45;;;;;;;5.30;3.13;;;15.10;99.90;;;;;;4967033;28;20064;-85
2021/10/20 07:27:11;;;;;;;4.90;3.35;;;15.10;99.90;;;;;;4975577;28;20027;-84
2021/10/20 07:29:37;;;;;;;7.78;4.15;;;15.20;99.90;;;;;;4981787;28;20438;-85
2021/10/20 07:32:03;;;;;;;6.75;4.78;;;15.20;99.90;;;;;;4645889;28;9999877;-85
2021/10/20 07:34:29;;;;;;;5.50;3.60;;;15.20;99.90;;;;;;4972307;28;20109;-85
2021/10/20 07:36:55;;;;;;;4.50;2.95;;;15.30;99.90;;;;;;4990159;28;20536;-85
2021/10/20 07:39:22;;;;;;;7.18;4.25;;;15.30;99.90;;;;;;4973477;28;20516;-85
2021/10/20 07:41:48;;;;;;;5.80;3.80;;;15.30;99.90;;;;;;5007566;28;20029;-85
2021/10/20 07:44:14;;;;;;;4.20;3.70;;;15.30;99.70;;;;;;4991181;28;20042;-85
2021/10/20 07:46:40;;;;;;;7.63;4.13;;;15.40;99.80;;;;;;5005712;28;20092;-85
2021/10/20 07:49:06;;;;;;;3.75;2.95;;;15.50;99.80;;;;;;4981971;28;20035;-84
2021/10/20 07:51:31;;;;;;;6.18;3.63;;;15.50;99.90;;;;;;4953904;28;20038;-85
2021/10/20 07:53:57;;;;;;;5.47;2.90;;;15.50;99.90;;;;;;4967066;28;20162;-85
2021/10/20 07:56:31;;;;;;;7.32;3.95;;;15.50;99.90;;;;;;4983227;28;20030;-85
2021/10/20 07:58:57;;;;;;;5.25;2.80;;;15.60;99.90;;;;;;4965637;28;20517;-85
2021/10/20 08:01:22;;;;;;;4.13;2.80;;;15.60;99.70;;;;;;4967045;28;20026;-84
2021/10/20 08:03:48;;;;;;;8.15;4.10;;;15.70;99.70;;;;;;4969422;28;20124;-85
2021/10/20 08:06:14;;;;;;;5.20;4.07;;;15.70;99.70;;;;;;5006211;28;20087;-85
2021/10/20 08:08:39;;;;;;;7.32;4.30;;;15.70;99.70;;;;;;5017550;28;20045;-85
2021/10/20 08:11:05;;;;;;;5.63;4.38;;;15.80;99.90;;;;;;4986590;28;20486;-85
2021/10/20 08:13:30;;;;;;;4.85;3.65;;;15.90;99.60;;;;;;4980838;28;20030;-84
2021/10/20 08:15:56;;;;;;;4.78;3.60;;;15.90;99.50;;;;;;4998920;28;20061;-85
2021/10/20 08:18:22;;;;;;;9.25;3.80;;;15.90;99.60;;;;;;4999086;28;20034;-84
2021/10/20 08:20:48;;;;;;;5.18;2.88;;;15.90;99.60;;;;;;4999811;28;20037;-85
2021/10/20 08:23:13;;;;;;;7.57;4.35;;;15.90;99.50;;;;;;4985162;28;20033;-85
2021/10/20 08:25:39;;;;;;;10.32;4.25;;;15.90;99.70;;;;;;4958853;28;20030;-84
2021/10/20 08:28:06;;;;;;;4.63;3.30;;;15.90;99.70;;;;;;4952175;28;20057;-84
2021/10/20 08:30:33;;;;;;;7.88;4.18;;;15.90;99.60;;;;;;4995747;28;20073;-84
2021/10/20 08:32:59;;;;;;;5.03;3.10;;;16.00;99.70;;;;;;5015922;28;20219;-83
2021/10/20 08:35:25;;;;;;;6.93;4.25;;;16.00;99.60;;;;;;5000118;28;20030;-84
2021/10/20 08:37:56;;;;;;;4.05;2.85;;;16.00;99.60;;;;;;4996351;28;20022;-84
2021/10/20 08:40:25;;;;;;;8.50;4.18;;;16.00;99.50;;;;;;4948058;28;20027;-84
2021/10/20 08:42:51;;;;;;;6.93;3.90;;;16.00;99.60;;;;;;4999180;28;20026;-83
2021/10/20 08:45:17;;;;;;;6.07;3.47;;;16.10;99.60;;;;;;4964460;28;20087;-84
2021/10/20 08:47:45;;;;;;;3.92;2.90;;;16.10;99.60;;;;;;4985468;28;20034;-84
2021/10/20 08:50:11;;;;;;;6.97;4.15;;;16.20;99.60;;;;;;4966213;28;20038;-84
2021/10/20 08:52:36;;;;;;;8.80;4.18;;;16.30;99.70;;;;;;4949683;28;20531;-84
2021/10/20 08:55:02;;;;;;;5.38;3.85;;;16.40;99.60;;;;;;4969486;28;20038;-84
2021/10/20 08:57:28;;;;;;;4.03;2.17;;;16.50;99.30;;;;;;4966117;28;20031;-85
2021/10/20 08:59:53;;;;;;;4.75;2.45;;;16.60;99.30;;;;;;4981734;28;20042;-84
2021/10/20 09:02:22;;;;;;;4.07;2.55;;;16.70;99.30;;;;;;4981366;28;20026;-83
2021/10/20 09:04:53;;;;;;;5.88;2.38;;;16.80;99.10;;;;;;4960473;28;20030;-83
2021/10/20 09:07:19;;;;;;;4.90;3.58;;;16.90;98.80;;;;;;4981755;28;20398;-83
2021/10/20 09:09:44;;;;;;;5.38;3.08;;;17.00;98.80;;;;;;4970676;28;20038;-84
2021/10/20 09:12:10;;;;;;;7.53;3.83;;;17.10;98.70;;;;;;4979784;28;20497;-83
2021/10/20 09:14:35;;;;;;;6.47;3.50;;;17.10;98.40;;;;;;4981634;28;20038;-83
2021/10/20 09:17:02;;;;;;;8.00;4.45;;;17.20;98.30;;;;;;4967466;28;20033;-84
2021/10/20 09:19:35;;;;;;;6.38;3.28;;;17.30;98.50;;;;;;4951167;28;20026;-84
2021/10/20 09:22:05;;;;;;;5.65;2.22;;;17.30;98.10;;;;;;4954843;28;20660;-83
2021/10/20 09:24:38;;;;;;;5.97;3.55;;;17.40;98.10;;;;;;4966833;28;20093;-83
2021/10/20 09:27:19;;;;;;;4.36;3.76;;;17.30;97.90;;;;;;4921627;28;10000923;-83
2021/10/20 09:29:44;;;;;;;4.68;3.75;;;17.40;98.00;;;;;;4984237;28;20663;-83
2021/10/20 09:32:10;;;;;;;3.28;2.58;;;17.30;98.20;;;;;;4958561;28;20065;-83
2021/10/20 09:34:36;;;;;;;6.45;3.65;;;17.40;98.10;;;;;;4966681;28;20038;-83
2021/10/20 09:37:06;;;;;;;5.28;3.38;;;17.40;98.30;;;;;;4978097;28;20077;-83
2021/10/20 09:39:31;;;;;;;7.25;3.80;;;17.40;98.60;;;;;;4981522;28;20442;-83
2021/10/20 09:42:11;;;;;;;6.25;3.90;;;17.30;98.10;;;;;;4984490;28;20040;-84
2021/10/20 09:44:50;;;;;;;4.57;3.60;;;17.30;97.90;;;;;;4966408;28;20030;-84
2021/10/20 09:47:15;;;;;;;4.60;3.03;;;17.20;98.00;;;;;;4998302;28;20513;-84
2021/10/20 09:49:54;;;;;;;7.57;3.60;;;17.20;97.70;;;;;;5004511;28;20038;-84
2021/10/20 09:52:24;;;;;;;6.03;3.65;;;17.20;97.80;;;;;;4979220;28;20030;-83
2021/10/20 09:54:50;;;;;;;4.00;2.30;;;17.20;97.60;;;;;;4992382;28;20030;-83
2021/10/20 09:57:15;;;;;;;4.90;3.38;;;17.30;97.60;;;;;;4952218;28;20035;-84
2021/10/20 09:59:42;;;;;;;5.57;3.40;;;17.20;97.50;;;;;;4950640;28;20034;-83
2021/10/20 10:02:09;;;;;;;5.07;3.47;;;17.20;97.50;;;;;;4981292;28;20046;-84
2021/10/20 10:04:37;;;;;;;4.32;3.28;;;17.20;97.40;;;;;;4952400;28;20038;-84
2021/10/20 10:07:03;;;;;;;6.10;2.58;;;17.20;97.40;;;;;;4966305;28;20146;-83
2021/10/20 10:09:28;;;;;;;7.95;3.63;;;17.30;97.30;;;;;;4948139;28;20469;-84
2021/10/20 10:12:00;;;;;;;3.88;2.95;;;17.30;97.40;;;;;;4993384;28;20041;-83
2021/10/20 10:14:28;;;;;;;9.18;3.65;;;17.40;97.70;;;;;;4986304;28;20558;-84
2021/10/20 10:17:02;;;;;;;3.33;2.80;;;17.40;97.60;;;;;;4979622;28;20434;-85
2021/10/20 10:19:49;;;;;;;4.40;3.35;;;17.50;97.30;;;;;;4970023;28;20039;-84
2021/10/20 10:22:26;;;;;;;4.47;3.42;;;17.40;97.50;;;;;;5003806;28;20478;-84
2021/10/20 10:24:51;;;;;;;3.25;1.88;;;17.40;97.30;;;;;;4985206;28;20096;-84
2021/10/20 10:27:17;;;;;;;6.70;3.33;;;17.40;97.30;;;;;;4971364;28;20116;-84
2021/10/20 10:29:54;;;;;;;3.70;2.55;;;17.40;97.30;;;;;;5000153;28;20035;-84
2021/10/20 10:32:21;;;;;;;6.85;3.42;;;17.30;97.30;;;;;;4969358;28;20813;-84
2021/10/20 10:34:48;;;;;;;7.32;3.33;;;17.30;97.40;;;;;;4969040;28;20480;-84
2021/10/20 10:37:27;;;;;;;10.35;3.50;;;17.40;97.50;;;;;;4980575;28;20443;-84
2021/10/20 10:39:54;;;;;;;6.25;4.07;;;17.50;97.40;;;;;;5002329;28;20080;-84
2021/10/20 10:42:32;;;;;;;6.82;3.42;;;17.40;97.40;;;;;;4981100;28;20042;-84
2021/10/20 10:45:12;;;;;;;7.43;4.15;;;17.30;97.60;;;;;;4959763;28;20047;-85
2021/10/20 10:48:03;;;;;;;6.65;3.90;;;17.30;97.30;;;;;;5007590;28;20091;-84
2021/10/20 10:50:41;;;;;;;4.68;3.42;;;17.40;97.30;;;;;;4991263;28;20035;-84
2021/10/20 10:53:07;;;;;;;5.03;3.28;;;17.40;97.40;;;;;;4994677;28;20050;-84
2021/10/20 10:55:33;;;;;;;5.22;4.22;;;17.40;97.30;;;;;;5001318;28;20450;-85
2021/10/20 10:58:03;;;;;;;6.38;3.63;;;17.30;97.40;;;;;;5002791;28;20117;-84
2021/10/20 11:00:34;;;;;;;6.30;4.28;;;17.30;97.50;;;;;;5003025;28;20038;-85
2021/10/20 11:03:06;;;;;;;4.90;3.40;;;17.30;97.60;;;;;;4299707;28;10000695;-85
2021/10/20 11:05:32;;;;;;;2.95;2.20;;;17.20;98.00;;;;;;4997217;28;20041;-85
2021/10/20 11:08:06;;;;;;;7.82;4.47;;;17.20;97.80;;;;;;5002407;28;20040;-85
2021/10/20 11:10:34;;;;;;;6.10;4.00;;;17.30;97.80;;;;;;4987468;28;20141;-84
2021/10/20 11:13:00;;;;;;;4.57;3.75;;;17.20;97.80;;;;;;5004198;28;20038;-85
2021/10/20 11:15:29;;;;;;;5.07;3.90;;;17.20;97.80;;;;;;4967156;28;20033;-87
2021/10/20 11:17:56;;;;;;;7.88;5.10;;;17.20;97.90;;;;;;4979816;28;20038;-86
2021/10/20 11:20:22;;;;;;;6.25;3.28;;;17.10;98.00;;;;;;4988623;28;20037;-85
2021/10/20 11:22:57;;;;;;;4.63;2.40;;;17.10;98.00;;;;;;4975218;28;20151;-86
2021/10/20 11:25:23;;;;;;;7.07;3.97;;;17.00;98.10;;;;;;4972989;28;20342;-85
2021/10/20 11:27:53;;;;;;;4.75;3.30;;;17.00;98.20;;;;;;4981752;28;20497;-86
2021/10/20 11:30:21;;;;;;;4.32;3.72;;;17.00;98.30;;;;;;4982385;28;20076;-85
2021/10/20 11:32:49;;;;;;;5.00;3.67;;;16.90;98.30;;;;;;4975296;28;20615;-86
2021/10/20 11:35:18;;;;;;;4.53;2.85;;;16.90;98.50;;;;;;4981153;28;20073;-86
2021/10/20 11:37:50;;;;;;;6.80;4.07;;;16.90;98.60;;;;;;4970145;28;20101;-87
2021/10/20 11:40:15;;;;;;;5.32;4.50;;;16.90;98.70;;;;;;4952841;28;20477;-86
2021/10/20 11:42:43;;;;;;;4.75;3.65;;;16.90;98.80;;;;;;4973847;28;20039;-86
2021/10/20 11:45:09;;;;;;;8.15;4.38;;;17.00;98.90;;;;;;4965153;28;20507;-85
2021/10/20 11:47:42;;;;;;;5.72;2.72;;;17.00;98.90;;;;;;5000034;28;20341;-86
2021/10/20 11:50:17;;;;;;;5.85;3.28;;;17.00;98.90;;;;;;4980481;28;20034;-84
2021/10/20 11:52:42;;;;;;;9.50;5.20;;;17.00;99.00;;;;;;5017485;28;20042;-84
2021/10/20 11:55:10;;;;;;;4.85;2.50;;;17.10;99.10;;;;;;4960218;28;20449;-84
2021/10/20 11:57:35;;;;;;;3.42;3.13;;;17.10;99.10;;;;;;4970705;28;20084;-85
2021/10/20 12:00:01;;;;;;;4.30;3.20;;;17.10;99.10;;;;;;4973033;28;20034;-84
2021/10/20 12:02:31;;;;;;;5.97;4.10;;;17.10;99.20;;;;;;4967318;28;20037;-84
2021/10/20 12:04:56;;;;;;;3.83;2.55;;;17.10;99.40;;;;;;4986836;28;20490;-84
2021/10/20 12:07:30;;;;;;;6.65;3.35;;;17.20;99.30;;;;;;4959055;28;20034;-84
2021/10/20 12:09:59;;;;;;;6.78;3.72;;;17.20;99.30;;;;;;4983855;28;20113;-84
2021/10/20 12:12:25;;;;;;;5.63;3.55;;;17.20;99.40;;;;;;4980719;28;20407;-83
2021/10/20 12:14:50;;;;;;;3.67;3.05;;;17.20;99.40;;;;;;4988973;28;20038;-84
2021/10/20 12:17:16;;;;;;;4.97;4.38;;;17.10;99.40;;;;;;4995536;28;20081;-84
2021/10/20 12:19:42;;;;;;;3.88;3.03;;;17.20;99.50;;;;;;4989563;28;20113;-84
2021/10/20 12:22:13;;;;;;;7.25;4.15;;;17.20;99.60;;;;;;4973541;28;20483;-84
2021/10/20 12:24:42;;;;;;;7.95;3.63;;;17.30;99.40;;;;;;4966259;28;20054;-84
2021/10/20 12:27:09;;;;;;;4.68;3.58;;;17.30;99.60;;;;;;4971818;28;20697;-84
2021/10/20 12:29:39;;;;;;;5.28;3.47;;;17.30;99.50;;;;;;4959239;28;20031;-84
2021/10/20 12:32:12;;;;;;;7.65;4.20;;;17.20;99.70;;;;;;4972406;28;20062;-83
2021/10/20 12:34:51;;;;;;;5.00;2.95;;;17.20;99.40;;;;;;4957258;28;20490;-83
2021/10/20 12:37:16;;;;;;;9.55;3.83;;;17.20;99.50;;;;;;4969919;28;20027;-84
2021/10/20 12:39:42;;;;;;;5.45;4.22;;;17.20;99.50;;;;;;4967779;28;20433;-83
2021/10/20 12:42:08;;;;;;;8.55;4.45;;;17.20;99.50;;;;;;4966369;28;20030;-83
2021/10/20 12:44:34;;;;;;;5.07;4.18;;;17.30;99.80;;;;;;5007350;28;20044;-83